sensor_id;sensor_type;location;lat;lon;timestamp;P1;durP1;ratioP1;P2;durP2;ratioP2
12691;SDS011;6410;57.636;18.304;2022-08-03T00:01:43;4.38;;;2.72;;
12691;SDS011;6410;57.636;18.304;2022-08-03T00:04:12;3.40;;;2.13;;
12691;SDS011;6410;57.636;18.304;2022-08-03T00:06:40;2.47;;;2.00;;
12691;SDS011;6410;57.636;18.304;2022-08-03T00:09:08;3.58;;;2.28;;
12691;SDS011;6410;57.636;18.304;2022-08-03T00:11:38;3.65;;;2.35;;
12691;SDS011;6410;57.636;18.304;2022-08-03T00:14:07;6.05;;;2.58;;
12691;SDS011;6410;57.636;18.304;2022-08-03T00:16:35;3.45;;;2.30;;
12691;SDS011;6410;57.636;18.304;2022-08-03T00:19:04;3.33;;;1.98;;
12691;SDS011;6410;57.636;18.304;2022-08-03T00:21:32;6.72;;;2.33;;
12691;SDS011;6410;57.636;18.304;2022-08-03T00:24:00;3.58;;;2.28;;
12691;SDS011;6410;57.636;18.304;2022-08-03T00:26:29;4.15;;;2.50;;
12691;SDS011;6410;57.636;18.304;2022-08-03T00:28:59;2.40;;;2.20;;
12691;SDS011;6410;57.636;18.304;2022-08-03T00:31:27;3.35;;;2.90;;
12691;SDS011;6410;57.636;18.304;2022-08-03T00:34:16;4.28;;;2.08;;
12691;SDS011;6410;57.636;18.304;2022-08-03T00:37:02;5.28;;;2.25;;
12691;SDS011;6410;57.636;18.304;2022-08-03T00:39:30;4.18;;;2.42;;
12691;SDS011;6410;57.636;18.304;2022-08-03T00:42:00;2.08;;;1.98;;
12691;SDS011;6410;57.636;18.304;2022-08-03T00:44:30;2.08;;;1.90;;
12691;SDS011;6410;57.636;18.304;2022-08-03T00:47:06;2.83;;;1.92;;
12691;SDS011;6410;57.636;18.304;2022-08-03T00:49:35;4.25;;;2.33;;
12691;SDS011;6410;57.636;18.304;2022-08-03T00:52:06;2.85;;;1.90;;
12691;SDS011;6410;57.636;18.304;2022-08-03T00:54:36;2.67;;;2.00;;
12691;SDS011;6410;57.636;18.304;2022-08-03T00:57:05;3.30;;;2.10;;
12691;SDS011;6410;57.636;18.304;2022-08-03T00:59:35;4.45;;;2.53;;
12691;SDS011;6410;57.636;18.304;2022-08-03T01:02:05;3.55;;;2.50;;
12691;SDS011;6410;57.636;18.304;2022-08-03T01:04:33;5.88;;;2.13;;
12691;SDS011;6410;57.636;18.304;2022-08-03T01:07:05;2.30;;;2.10;;
12691;SDS011;6410;57.636;18.304;2022-08-03T01:09:41;2.42;;;2.17;;
12691;SDS011;6410;57.636;18.304;2022-08-03T01:12:21;2.35;;;1.92;;
12691;SDS011;6410;57.636;18.304;2022-08-03T01:14:59;3.20;;;2.08;;
12691;SDS011;6410;57.636;18.304;2022-08-03T01:17:36;5.53;;;2.35;;
12691;SDS011;6410;57.636;18.304;2022-08-03T01:20:13;5.35;;;1.92;;
12691;SDS011;6410;57.636;18.304;2022-08-03T01:22:52;2.67;;;1.90;;
12691;SDS011;6410;57.636;18.304;2022-08-03T01:25:50;4.22;;;1.98;;
12691;SDS011;6410;57.636;18.304;2022-08-03T01:28:32;3.22;;;1.85;;
12691;SDS011;6410;57.636;18.304;2022-08-03T01:31:22;4.78;;;1.95;;
12691;SDS011;6410;57.636;18.304;2022-08-03T01:33:56;6.05;;;2.40;;
12691;SDS011;6410;57.636;18.304;2022-08-03T01:36:34;2.67;;;1.90;;
12691;SDS011;6410;57.636;18.304;2022-08-03T01:39:05;4.70;;;2.03;;
12691;SDS011;6410;57.636;18.304;2022-08-03T01:41:39;3.65;;;2.20;;
12691;SDS011;6410;57.636;18.304;2022-08-03T01:44:13;3.35;;;2.20;;
12691;SDS011;6410;57.636;18.304;2022-08-03T01:46:57;3.03;;;2.17;;
12691;SDS011;6410;57.636;18.304;2022-08-03T01:49:27;3.47;;;2.05;;
12691;SDS011;6410;57.636;18.304;2022-08-03T01:51:58;3.10;;;2.00;;
12691;SDS011;6410;57.636;18.304;2022-08-03T01:54:39;2.58;;;2.10;;
12691;SDS011;6410;57.636;18.304;2022-08-03T01:57:10;4.78;;;2.42;;
12691;SDS011;6410;57.636;18.304;2022-08-03T01:59:40;3.40;;;1.98;;
12691;SDS011;6410;57.636;18.304;2022-08-03T02:02:11;4.28;;;2.13;;
12691;SDS011;6410;57.636;18.304;2022-08-03T02:04:59;3.95;;;2.45;;
12691;SDS011;6410;57.636;18.304;2022-08-03T02:07:29;2.25;;;2.00;;
12691;SDS011;6410;57.636;18.304;2022-08-03T02:10:00;6.88;;;2.45;;
12691;SDS011;6410;57.636;18.304;2022-08-03T02:12:30;2.83;;;1.98;;
12691;SDS011;6410;57.636;18.304;2022-08-03T02:15:00;2.33;;;2.13;;
12691;SDS011;6410;57.636;18.304;2022-08-03T02:17:30;3.10;;;1.88;;
12691;SDS011;6410;57.636;18.304;2022-08-03T02:20:05;3.80;;;2.13;;
12691;SDS011;6410;57.636;18.304;2022-08-03T02:22:35;4.57;;;2.30;;
12691;SDS011;6410;57.636;18.304;2022-08-03T02:25:07;3.95;;;2.08;;
12691;SDS011;6410;57.636;18.304;2022-08-03T02:27:37;6.80;;;2.58;;
12691;SDS011;6410;57.636;18.304;2022-08-03T02:30:09;3.47;;;2.15;;
12691;SDS011;6410;57.636;18.304;2022-08-03T02:32:41;3.13;;;2.22;;
12691;SDS011;6410;57.636;18.304;2022-08-03T02:35:14;5.25;;;2.80;;
12691;SDS011;6410;57.636;18.304;2022-08-03T02:37:47;2.38;;;2.17;;
12691;SDS011;6410;57.636;18.304;2022-08-03T02:40:19;2.50;;;2.30;;
12691;SDS011;6410;57.636;18.304;2022-08-03T02:42:50;2.97;;;2.10;;
12691;SDS011;6410;57.636;18.304;2022-08-03T02:45:22;4.95;;;2.30;;
12691;SDS011;6410;57.636;18.304;2022-08-03T02:47:55;2.97;;;2.17;;
12691;SDS011;6410;57.636;18.304;2022-08-03T02:50:29;5.20;;;3.00;;
12691;SDS011;6410;57.636;18.304;2022-08-03T02:53:00;5.22;;;2.47;;
12691;SDS011;6410;57.636;18.304;2022-08-03T02:55:31;4.68;;;2.08;;
12691;SDS011;6410;57.636;18.304;2022-08-03T02:58:11;5.78;;;2.20;;
12691;SDS011;6410;57.636;18.304;2022-08-03T03:00:41;4.90;;;2.45;;
12691;SDS011;6410;57.636;18.304;2022-08-03T03:03:12;4.50;;;2.60;;
12691;SDS011;6410;57.636;18.304;2022-08-03T03:05:45;2.50;;;2.15;;
12691;SDS011;6410;57.636;18.304;2022-08-03T03:08:20;4.45;;;2.15;;
12691;SDS011;6410;57.636;18.304;2022-08-03T03:10:54;7.38;;;2.78;;
12691;SDS011;6410;57.636;18.304;2022-08-03T03:13:25;5.28;;;2.58;;
12691;SDS011;6410;57.636;18.304;2022-08-03T03:15:55;6.78;;;2.83;;
12691;SDS011;6410;57.636;18.304;2022-08-03T03:18:28;2.63;;;2.00;;
12691;SDS011;6410;57.636;18.304;2022-08-03T03:20:59;7.47;;;2.83;;
12691;SDS011;6410;57.636;18.304;2022-08-03T03:23:29;4.50;;;2.35;;
12691;SDS011;6410;57.636;18.304;2022-08-03T03:25:59;4.35;;;2.80;;
12691;SDS011;6410;57.636;18.304;2022-08-03T03:28:28;5.10;;;2.45;;
12691;SDS011;6410;57.636;18.304;2022-08-03T03:30:58;4.20;;;2.33;;
12691;SDS011;6410;57.636;18.304;2022-08-03T03:33:28;5.38;;;2.50;;
12691;SDS011;6410;57.636;18.304;2022-08-03T03:35:57;3.22;;;2.47;;
12691;SDS011;6410;57.636;18.304;2022-08-03T03:38:25;2.50;;;2.30;;
12691;SDS011;6410;57.636;18.304;2022-08-03T03:40:54;2.47;;;2.28;;
12691;SDS011;6410;57.636;18.304;2022-08-03T03:43:22;4.43;;;2.60;;
12691;SDS011;6410;57.636;18.304;2022-08-03T03:45:51;3.35;;;2.50;;
12691;SDS011;6410;57.636;18.304;2022-08-03T03:48:21;6.20;;;2.30;;
12691;SDS011;6410;57.636;18.304;2022-08-03T03:50:52;2.85;;;2.20;;
12691;SDS011;6410;57.636;18.304;2022-08-03T03:53:23;3.13;;;2.80;;
12691;SDS011;6410;57.636;18.304;2022-08-03T03:55:52;5.38;;;2.75;;
12691;SDS011;6410;57.636;18.304;2022-08-03T03:58:28;4.85;;;2.92;;
12691;SDS011;6410;57.636;18.304;2022-08-03T04:00:57;3.45;;;2.58;;
12691;SDS011;6410;57.636;18.304;2022-08-03T04:03:26;4.03;;;2.83;;
12691;SDS011;6410;57.636;18.304;2022-08-03T04:05:56;3.42;;;2.22;;
12691;SDS011;6410;57.636;18.304;2022-08-03T04:08:42;3.97;;;3.20;;
12691;SDS011;6410;57.636;18.304;2022-08-03T04:11:29;4.28;;;2.72;;
12691;SDS011;6410;57.636;18.304;2022-08-03T04:14:04;6.75;;;3.38;;
12691;SDS011;6410;57.636;18.304;2022-08-03T04:16:36;3.38;;;3.00;;
12691;SDS011;6410;57.636;18.304;2022-08-03T04:19:09;4.15;;;3.65;;
12691;SDS011;6410;57.636;18.304;2022-08-03T04:21:49;3.65;;;3.38;;
12691;SDS011;6410;57.636;18.304;2022-08-03T04:24:22;4.43;;;3.80;;
12691;SDS011;6410;57.636;18.304;2022-08-03T04:26:54;3.97;;;3.63;;
12691;SDS011;6410;57.636;18.304;2022-08-03T04:29:23;3.88;;;3.60;;
12691;SDS011;6410;57.636;18.304;2022-08-03T04:31:55;3.72;;;3.42;;
12691;SDS011;6410;57.636;18.304;2022-08-03T04:34:28;8.30;;;4.32;;
12691;SDS011;6410;57.636;18.304;2022-08-03T04:36:59;3.72;;;3.42;;
12691;SDS011;6410;57.636;18.304;2022-08-03T04:39:33;3.90;;;3.45;;
12691;SDS011;6410;57.636;18.304;2022-08-03T04:42:02;4.80;;;3.70;;
12691;SDS011;6410;57.636;18.304;2022-08-03T04:44:34;4.75;;;3.60;;
12691;SDS011;6410;57.636;18.304;2022-08-03T04:47:05;3.63;;;3.42;;
12691;SDS011;6410;57.636;18.304;2022-08-03T04:49:35;5.05;;;3.92;;
12691;SDS011;6410;57.636;18.304;2022-08-03T04:52:05;4.18;;;3.90;;
12691;SDS011;6410;57.636;18.304;2022-08-03T04:54:39;4.18;;;3.78;;
12691;SDS011;6410;57.636;18.304;2022-08-03T04:57:13;3.22;;;3.03;;
12691;SDS011;6410;57.636;18.304;2022-08-03T04:59:47;3.97;;;3.67;;
12691;SDS011;6410;57.636;18.304;2022-08-03T05:02:27;3.30;;;3.05;;
12691;SDS011;6410;57.636;18.304;2022-08-03T05:04:56;7.47;;;3.90;;
12691;SDS011;6410;57.636;18.304;2022-08-03T05:07:27;3.65;;;3.38;;
12691;SDS011;6410;57.636;18.304;2022-08-03T05:10:02;4.43;;;3.30;;
12691;SDS011;6410;57.636;18.304;2022-08-03T05:12:42;3.65;;;3.40;;
12691;SDS011;6410;57.636;18.304;2022-08-03T05:15:11;4.03;;;3.70;;
12691;SDS011;6410;57.636;18.304;2022-08-03T05:17:40;3.90;;;3.60;;
12691;SDS011;6410;57.636;18.304;2022-08-03T05:20:09;5.00;;;3.80;;
12691;SDS011;6410;57.636;18.304;2022-08-03T05:22:39;8.65;;;4.35;;
12691;SDS011;6410;57.636;18.304;2022-08-03T05:25:07;4.63;;;4.20;;
12691;SDS011;6410;57.636;18.304;2022-08-03T05:27:45;4.50;;;4.00;;
12691;SDS011;6410;57.636;18.304;2022-08-03T05:30:13;6.63;;;3.97;;
12691;SDS011;6410;57.636;18.304;2022-08-03T05:32:59;4.00;;;3.60;;
12691;SDS011;6410;57.636;18.304;2022-08-03T05:35:28;4.65;;;4.25;;
12691;SDS011;6410;57.636;18.304;2022-08-03T05:38:18;3.35;;;3.15;;
12691;SDS011;6410;57.636;18.304;2022-08-03T05:40:54;4.03;;;3.63;;
12691;SDS011;6410;57.636;18.304;2022-08-03T05:43:43;4.15;;;3.72;;
12691;SDS011;6410;57.636;18.304;2022-08-03T05:46:11;3.60;;;3.25;;
12691;SDS011;6410;57.636;18.304;2022-08-03T05:48:42;4.60;;;3.10;;
12691;SDS011;6410;57.636;18.304;2022-08-03T05:51:10;4.55;;;3.80;;
12691;SDS011;6410;57.636;18.304;2022-08-03T05:53:41;4.50;;;4.20;;
12691;SDS011;6410;57.636;18.304;2022-08-03T05:56:10;4.15;;;3.45;;
12691;SDS011;6410;57.636;18.304;2022-08-03T05:58:42;3.45;;;3.25;;
12691;SDS011;6410;57.636;18.304;2022-08-03T06:01:11;3.53;;;3.30;;
12691;SDS011;6410;57.636;18.304;2022-08-03T06:03:39;3.72;;;3.42;;
12691;SDS011;6410;57.636;18.304;2022-08-03T06:06:10;5.35;;;3.33;;
12691;SDS011;6410;57.636;18.304;2022-08-03T06:08:39;5.13;;;3.80;;
12691;SDS011;6410;57.636;18.304;2022-08-03T06:11:09;5.10;;;4.03;;
12691;SDS011;6410;57.636;18.304;2022-08-03T06:13:38;4.18;;;3.88;;
12691;SDS011;6410;57.636;18.304;2022-08-03T06:16:06;3.72;;;3.42;;
12691;SDS011;6410;57.636;18.304;2022-08-03T06:18:35;4.70;;;3.33;;
12691;SDS011;6410;57.636;18.304;2022-08-03T06:21:03;5.50;;;3.58;;
12691;SDS011;6410;57.636;18.304;2022-08-03T06:23:42;3.83;;;3.20;;
12691;SDS011;6410;57.636;18.304;2022-08-03T06:26:19;3.88;;;3.50;;
12691;SDS011;6410;57.636;18.304;2022-08-03T06:28:47;5.13;;;3.80;;
12691;SDS011;6410;57.636;18.304;2022-08-03T06:31:19;5.30;;;3.83;;
12691;SDS011;6410;57.636;18.304;2022-08-03T06:33:49;3.83;;;3.40;;
12691;SDS011;6410;57.636;18.304;2022-08-03T06:36:38;3.25;;;3.00;;
12691;SDS011;6410;57.636;18.304;2022-08-03T06:39:07;4.03;;;3.40;;
12691;SDS011;6410;57.636;18.304;2022-08-03T06:41:36;4.35;;;3.42;;
12691;SDS011;6410;57.636;18.304;2022-08-03T06:44:10;4.30;;;3.30;;
12691;SDS011;6410;57.636;18.304;2022-08-03T06:46:39;3.53;;;3.22;;
12691;SDS011;6410;57.636;18.304;2022-08-03T06:49:08;3.58;;;3.28;;
12691;SDS011;6410;57.636;18.304;2022-08-03T06:51:36;4.63;;;3.60;;
12691;SDS011;6410;57.636;18.304;2022-08-03T06:54:26;3.53;;;3.25;;
12691;SDS011;6410;57.636;18.304;2022-08-03T06:56:58;3.53;;;3.28;;
12691;SDS011;6410;57.636;18.304;2022-08-03T06:59:27;3.75;;;3.42;;
12691;SDS011;6410;57.636;18.304;2022-08-03T07:02:15;4.18;;;3.45;;
12691;SDS011;6410;57.636;18.304;2022-08-03T07:04:45;3.88;;;3.58;;
12691;SDS011;6410;57.636;18.304;2022-08-03T07:07:14;4.00;;;3.55;;
12691;SDS011;6410;57.636;18.304;2022-08-03T07:09:44;4.03;;;3.20;;
12691;SDS011;6410;57.636;18.304;2022-08-03T07:12:23;3.97;;;3.55;;
12691;SDS011;6410;57.636;18.304;2022-08-03T07:14:55;5.70;;;3.95;;
12691;SDS011;6410;57.636;18.304;2022-08-03T07:17:28;4.32;;;3.55;;
12691;SDS011;6410;57.636;18.304;2022-08-03T07:19:57;4.22;;;3.80;;
12691;SDS011;6410;57.636;18.304;2022-08-03T07:22:26;3.88;;;3.67;;
12691;SDS011;6410;57.636;18.304;2022-08-03T07:24:56;4.03;;;3.63;;
12691;SDS011;6410;57.636;18.304;2022-08-03T07:27:25;4.03;;;3.78;;
12691;SDS011;6410;57.636;18.304;2022-08-03T07:29:57;4.30;;;3.90;;
12691;SDS011;6410;57.636;18.304;2022-08-03T07:32:26;4.28;;;3.97;;
12691;SDS011;6410;57.636;18.304;2022-08-03T07:34:57;4.82;;;4.10;;
12691;SDS011;6410;57.636;18.304;2022-08-03T07:37:27;4.10;;;3.80;;
12691;SDS011;6410;57.636;18.304;2022-08-03T07:39:58;4.40;;;4.10;;
12691;SDS011;6410;57.636;18.304;2022-08-03T07:42:26;4.47;;;3.85;;
12691;SDS011;6410;57.636;18.304;2022-08-03T07:44:57;3.97;;;3.70;;
12691;SDS011;6410;57.636;18.304;2022-08-03T07:47:26;4.32;;;4.03;;
12691;SDS011;6410;57.636;18.304;2022-08-03T07:50:01;3.60;;;3.30;;
12691;SDS011;6410;57.636;18.304;2022-08-03T07:52:31;3.63;;;3.42;;
12691;SDS011;6410;57.636;18.304;2022-08-03T07:55:16;4.07;;;3.35;;
12691;SDS011;6410;57.636;18.304;2022-08-03T07:57:45;4.07;;;3.83;;
12691;SDS011;6410;57.636;18.304;2022-08-03T08:00:15;4.57;;;3.53;;
12691;SDS011;6410;57.636;18.304;2022-08-03T08:02:45;4.15;;;3.17;;
12691;SDS011;6410;57.636;18.304;2022-08-03T08:05:13;4.05;;;3.78;;
12691;SDS011;6410;57.636;18.304;2022-08-03T08:07:41;4.18;;;3.80;;
12691;SDS011;6410;57.636;18.304;2022-08-03T08:10:18;5.15;;;3.92;;
12691;SDS011;6410;57.636;18.304;2022-08-03T08:12:46;4.25;;;3.72;;
12691;SDS011;6410;57.636;18.304;2022-08-03T08:15:15;4.45;;;3.80;;
12691;SDS011;6410;57.636;18.304;2022-08-03T08:17:44;3.88;;;3.58;;
12691;SDS011;6410;57.636;18.304;2022-08-03T08:20:17;3.78;;;3.40;;
12691;SDS011;6410;57.636;18.304;2022-08-03T08:22:54;3.90;;;3.60;;
12691;SDS011;6410;57.636;18.304;2022-08-03T08:25:28;5.93;;;4.25;;
12691;SDS011;6410;57.636;18.304;2022-08-03T08:27:58;4.20;;;3.90;;
12691;SDS011;6410;57.636;18.304;2022-08-03T08:30:48;4.10;;;3.80;;
12691;SDS011;6410;57.636;18.304;2022-08-03T08:33:17;4.20;;;3.85;;
12691;SDS011;6410;57.636;18.304;2022-08-03T08:35:49;4.57;;;4.18;;
12691;SDS011;6410;57.636;18.304;2022-08-03T08:38:18;10.70;;;4.60;;
12691;SDS011;6410;57.636;18.304;2022-08-03T08:40:49;3.85;;;3.65;;
12691;SDS011;6410;57.636;18.304;2022-08-03T08:43:17;4.78;;;4.00;;
12691;SDS011;6410;57.636;18.304;2022-08-03T08:45:46;4.75;;;4.45;;
12691;SDS011;6410;57.636;18.304;2022-08-03T08:48:17;4.30;;;3.92;;
12691;SDS011;6410;57.636;18.304;2022-08-03T08:50:51;4.20;;;4.00;;
12691;SDS011;6410;57.636;18.304;2022-08-03T08:53:20;7.85;;;3.63;;
12691;SDS011;6410;57.636;18.304;2022-08-03T08:55:54;5.20;;;3.78;;
12691;SDS011;6410;57.636;18.304;2022-08-03T08:58:27;3.85;;;3.50;;
12691;SDS011;6410;57.636;18.304;2022-08-03T09:00:57;5.03;;;4.35;;
12691;SDS011;6410;57.636;18.304;2022-08-03T09:03:26;4.40;;;3.95;;
12691;SDS011;6410;57.636;18.304;2022-08-03T09:05:59;4.35;;;4.05;;
12691;SDS011;6410;57.636;18.304;2022-08-03T09:08:30;3.95;;;3.65;;
12691;SDS011;6410;57.636;18.304;2022-08-03T09:11:01;3.67;;;3.40;;
12691;SDS011;6410;57.636;18.304;2022-08-03T09:13:29;4.68;;;3.88;;
12691;SDS011;6410;57.636;18.304;2022-08-03T09:16:07;3.40;;;3.10;;
12691;SDS011;6410;57.636;18.304;2022-08-03T09:18:37;3.88;;;3.67;;
12691;SDS011;6410;57.636;18.304;2022-08-03T09:21:16;3.88;;;3.35;;
12691;SDS011;6410;57.636;18.304;2022-08-03T09:23:58;3.65;;;3.30;;
12691;SDS011;6410;57.636;18.304;2022-08-03T09:26:32;3.65;;;3.40;;
12691;SDS011;6410;57.636;18.304;2022-08-03T09:29:02;4.00;;;3.63;;
12691;SDS011;6410;57.636;18.304;2022-08-03T09:31:40;3.55;;;3.35;;
12691;SDS011;6410;57.636;18.304;2022-08-03T09:34:11;4.55;;;3.92;;
12691;SDS011;6410;57.636;18.304;2022-08-03T09:36:41;6.10;;;4.43;;
12691;SDS011;6410;57.636;18.304;2022-08-03T09:39:12;4.18;;;3.75;;
12691;SDS011;6410;57.636;18.304;2022-08-03T09:41:44;4.32;;;3.75;;
12691;SDS011;6410;57.636;18.304;2022-08-03T09:44:14;3.95;;;3.67;;
12691;SDS011;6410;57.636;18.304;2022-08-03T09:46:51;3.58;;;3.08;;
12691;SDS011;6410;57.636;18.304;2022-08-03T09:49:22;5.45;;;3.42;;
12691;SDS011;6410;57.636;18.304;2022-08-03T09:51:53;3.17;;;2.97;;
12691;SDS011;6410;57.636;18.304;2022-08-03T09:54:42;3.83;;;3.53;;
12691;SDS011;6410;57.636;18.304;2022-08-03T09:57:20;8.30;;;3.25;;
12691;SDS011;6410;57.636;18.304;2022-08-03T09:59:49;3.65;;;3.35;;
12691;SDS011;6410;57.636;18.304;2022-08-03T10:02:28;3.95;;;3.22;;
12691;SDS011;6410;57.636;18.304;2022-08-03T10:04:56;3.92;;;3.38;;
12691;SDS011;6410;57.636;18.304;2022-08-03T10:07:25;3.80;;;3.60;;
12691;SDS011;6410;57.636;18.304;2022-08-03T10:09:54;3.72;;;3.53;;
12691;SDS011;6410;57.636;18.304;2022-08-03T10:12:46;5.43;;;4.28;;
12691;SDS011;6410;57.636;18.304;2022-08-03T10:15:15;4.57;;;3.90;;
12691;SDS011;6410;57.636;18.304;2022-08-03T10:18:03;4.45;;;3.85;;
12691;SDS011;6410;57.636;18.304;2022-08-03T10:20:35;3.40;;;3.20;;
12691;SDS011;6410;57.636;18.304;2022-08-03T10:23:08;4.28;;;3.88;;
12691;SDS011;6410;57.636;18.304;2022-08-03T10:25:38;3.75;;;3.55;;
12691;SDS011;6410;57.636;18.304;2022-08-03T10:28:11;4.38;;;3.78;;
12691;SDS011;6410;57.636;18.304;2022-08-03T10:30:43;4.32;;;4.00;;
12691;SDS011;6410;57.636;18.304;2022-08-03T10:33:17;4.10;;;3.70;;
12691;SDS011;6410;57.636;18.304;2022-08-03T10:36:06;3.75;;;3.45;;
12691;SDS011;6410;57.636;18.304;2022-08-03T10:38:37;4.72;;;3.38;;
12691;SDS011;6410;57.636;18.304;2022-08-03T10:41:07;3.50;;;3.25;;
12691;SDS011;6410;57.636;18.304;2022-08-03T10:43:40;4.32;;;3.50;;
12691;SDS011;6410;57.636;18.304;2022-08-03T10:46:14;3.60;;;3.38;;
12691;SDS011;6410;57.636;18.304;2022-08-03T10:48:46;4.18;;;3.72;;
12691;SDS011;6410;57.636;18.304;2022-08-03T10:51:18;3.88;;;3.63;;
12691;SDS011;6410;57.636;18.304;2022-08-03T10:53:46;4.53;;;4.00;;
12691;SDS011;6410;57.636;18.304;2022-08-03T10:59:58;3.72;;;3.42;;
12691;SDS011;6410;57.636;18.304;2022-08-03T11:05:35;4.25;;;3.85;;
12691;SDS011;6410;57.636;18.304;2022-08-03T11:08:25;3.75;;;3.33;;
12691;SDS011;6410;57.636;18.304;2022-08-03T11:10:56;3.80;;;3.50;;
12691;SDS011;6410;57.636;18.304;2022-08-03T11:13:26;3.13;;;2.95;;
12691;SDS011;6410;57.636;18.304;2022-08-03T11:15:59;3.20;;;3.00;;
12691;SDS011;6410;57.636;18.304;2022-08-03T11:18:33;3.13;;;3.03;;
12691;SDS011;6410;57.636;18.304;2022-08-03T11:21:01;4.95;;;3.40;;
12691;SDS011;6410;57.636;18.304;2022-08-03T11:23:39;4.22;;;3.67;;
12691;SDS011;6410;57.636;18.304;2022-08-03T11:26:29;4.15;;;3.83;;
12691;SDS011;6410;57.636;18.304;2022-08-03T11:31:55;4.78;;;3.58;;
12691;SDS011;6410;57.636;18.304;2022-08-03T11:34:24;4.75;;;3.53;;
12691;SDS011;6410;57.636;18.304;2022-08-03T11:39:52;8.15;;;3.78;;
12691;SDS011;6410;57.636;18.304;2022-08-03T11:42:42;3.40;;;3.13;;
12691;SDS011;6410;57.636;18.304;2022-08-03T11:45:12;3.38;;;3.17;;
12691;SDS011;6410;57.636;18.304;2022-08-03T11:47:42;3.85;;;3.55;;
12691;SDS011;6410;57.636;18.304;2022-08-03T11:50:17;3.70;;;3.38;;
12691;SDS011;6410;57.636;18.304;2022-08-03T11:52:47;3.40;;;3.30;;
12691;SDS011;6410;57.636;18.304;2022-08-03T11:55:17;3.38;;;3.08;;
12691;SDS011;6410;57.636;18.304;2022-08-03T11:57:50;3.60;;;3.30;;
12691;SDS011;6410;57.636;18.304;2022-08-03T12:00:39;3.70;;;3.40;;
12691;SDS011;6410;57.636;18.304;2022-08-03T12:03:10;4.65;;;3.35;;
12691;SDS011;6410;57.636;18.304;2022-08-03T12:05:46;4.30;;;4.00;;
12691;SDS011;6410;57.636;18.304;2022-08-03T12:08:20;5.85;;;4.63;;
12691;SDS011;6410;57.636;18.304;2022-08-03T12:10:58;4.85;;;4.38;;
12691;SDS011;6410;57.636;18.304;2022-08-03T12:13:35;4.70;;;4.50;;
12691;SDS011;6410;57.636;18.304;2022-08-03T12:16:25;5.72;;;5.32;;
12691;SDS011;6410;57.636;18.304;2022-08-03T12:18:57;5.60;;;5.22;;
12691;SDS011;6410;57.636;18.304;2022-08-03T12:21:26;5.88;;;5.47;;
12691;SDS011;6410;57.636;18.304;2022-08-03T12:23:55;6.43;;;5.60;;
12691;SDS011;6410;57.636;18.304;2022-08-03T12:26:26;5.38;;;5.18;;
12691;SDS011;6410;57.636;18.304;2022-08-03T12:28:55;6.45;;;6.15;;
12691;SDS011;6410;57.636;18.304;2022-08-03T12:31:24;6.55;;;6.15;;
12691;SDS011;6410;57.636;18.304;2022-08-03T12:34:00;6.90;;;6.47;;
12691;SDS011;6410;57.636;18.304;2022-08-03T12:36:31;6.63;;;6.22;;
12691;SDS011;6410;57.636;18.304;2022-08-03T12:39:01;6.78;;;6.00;;
12691;SDS011;6410;57.636;18.304;2022-08-03T12:41:31;6.65;;;6.25;;
12691;SDS011;6410;57.636;18.304;2022-08-03T12:44:00;6.97;;;6.50;;
12691;SDS011;6410;57.636;18.304;2022-08-03T12:46:30;6.68;;;6.18;;
12691;SDS011;6410;57.636;18.304;2022-08-03T12:49:10;6.72;;;6.28;;
12691;SDS011;6410;57.636;18.304;2022-08-03T12:51:54;6.78;;;6.20;;
12691;SDS011;6410;57.636;18.304;2022-08-03T12:54:24;6.78;;;6.40;;
12691;SDS011;6410;57.636;18.304;2022-08-03T12:56:56;6.57;;;6.22;;
12691;SDS011;6410;57.636;18.304;2022-08-03T12:59:25;6.38;;;5.97;;
12691;SDS011;6410;57.636;18.304;2022-08-03T13:02:00;6.97;;;6.57;;
12691;SDS011;6410;57.636;18.304;2022-08-03T13:04:35;8.20;;;7.68;;
12691;SDS011;6410;57.636;18.304;2022-08-03T13:07:04;7.38;;;6.78;;
12691;SDS011;6410;57.636;18.304;2022-08-03T13:09:45;7.28;;;6.95;;
12691;SDS011;6410;57.636;18.304;2022-08-03T13:12:15;7.72;;;7.20;;
12691;SDS011;6410;57.636;18.304;2022-08-03T13:14:47;7.32;;;6.75;;
12691;SDS011;6410;57.636;18.304;2022-08-03T13:17:17;7.25;;;6.93;;
12691;SDS011;6410;57.636;18.304;2022-08-03T13:19:48;7.97;;;7.10;;
12691;SDS011;6410;57.636;18.304;2022-08-03T13:22:17;7.97;;;7.32;;
12691;SDS011;6410;57.636;18.304;2022-08-03T13:24:47;7.38;;;6.97;;
12691;SDS011;6410;57.636;18.304;2022-08-03T13:27:17;7.82;;;7.05;;
12691;SDS011;6410;57.636;18.304;2022-08-03T13:30:06;7.68;;;7.28;;
12691;SDS011;6410;57.636;18.304;2022-08-03T13:32:35;7.20;;;6.80;;
12691;SDS011;6410;57.636;18.304;2022-08-03T13:35:05;7.30;;;6.82;;
12691;SDS011;6410;57.636;18.304;2022-08-03T13:37:35;6.90;;;6.60;;
12691;SDS011;6410;57.636;18.304;2022-08-03T13:40:05;7.60;;;7.10;;
12691;SDS011;6410;57.636;18.304;2022-08-03T13:42:37;7.45;;;6.85;;
12691;SDS011;6410;57.636;18.304;2022-08-03T13:45:05;7.50;;;7.10;;
12691;SDS011;6410;57.636;18.304;2022-08-03T13:47:35;7.38;;;6.88;;
12691;SDS011;6410;57.636;18.304;2022-08-03T13:50:05;7.35;;;6.75;;
12691;SDS011;6410;57.636;18.304;2022-08-03T13:52:34;7.30;;;6.60;;
12691;SDS011;6410;57.636;18.304;2022-08-03T13:55:04;7.53;;;7.03;;
12691;SDS011;6410;57.636;18.304;2022-08-03T13:57:33;7.18;;;6.78;;
12691;SDS011;6410;57.636;18.304;2022-08-03T14:00:22;7.82;;;7.22;;
12691;SDS011;6410;57.636;18.304;2022-08-03T14:02:55;7.03;;;6.53;;
12691;SDS011;6410;57.636;18.304;2022-08-03T14:05:33;6.95;;;6.55;;
12691;SDS011;6410;57.636;18.304;2022-08-03T14:08:05;7.28;;;6.97;;
12691;SDS011;6410;57.636;18.304;2022-08-03T14:10:35;7.53;;;7.13;;
12691;SDS011;6410;57.636;18.304;2022-08-03T14:13:04;7.47;;;7.00;;
12691;SDS011;6410;57.636;18.304;2022-08-03T14:15:32;7.50;;;7.00;;
12691;SDS011;6410;57.636;18.304;2022-08-03T14:18:04;7.10;;;6.60;;
12691;SDS011;6410;57.636;18.304;2022-08-03T14:20:42;7.70;;;7.05;;
12691;SDS011;6410;57.636;18.304;2022-08-03T14:23:14;7.05;;;6.65;;
12691;SDS011;6410;57.636;18.304;2022-08-03T14:25:42;7.70;;;7.20;;
12691;SDS011;6410;57.636;18.304;2022-08-03T14:28:18;7.28;;;6.57;;
12691;SDS011;6410;57.636;18.304;2022-08-03T14:30:48;7.45;;;6.93;;
12691;SDS011;6410;57.636;18.304;2022-08-03T14:33:17;7.63;;;7.10;;
12691;SDS011;6410;57.636;18.304;2022-08-03T14:35:47;7.63;;;7.05;;
12691;SDS011;6410;57.636;18.304;2022-08-03T14:38:15;6.90;;;6.22;;
12691;SDS011;6410;57.636;18.304;2022-08-03T14:40:44;6.97;;;6.55;;
12691;SDS011;6410;57.636;18.304;2022-08-03T14:43:13;8.73;;;7.03;;
12691;SDS011;6410;57.636;18.304;2022-08-03T14:45:43;8.23;;;7.40;;
12691;SDS011;6410;57.636;18.304;2022-08-03T14:48:11;7.10;;;6.65;;
12691;SDS011;6410;57.636;18.304;2022-08-03T14:51:01;7.28;;;6.68;;
12691;SDS011;6410;57.636;18.304;2022-08-03T14:53:31;6.85;;;6.32;;
12691;SDS011;6410;57.636;18.304;2022-08-03T14:56:00;7.45;;;6.95;;
12691;SDS011;6410;57.636;18.304;2022-08-03T14:58:35;7.63;;;7.13;;
12691;SDS011;6410;57.636;18.304;2022-08-03T15:01:04;8.10;;;7.32;;
12691;SDS011;6410;57.636;18.304;2022-08-03T15:03:53;7.63;;;7.20;;
12691;SDS011;6410;57.636;18.304;2022-08-03T15:06:24;7.45;;;6.95;;
12691;SDS011;6410;57.636;18.304;2022-08-03T15:08:52;8.02;;;7.32;;
12691;SDS011;6410;57.636;18.304;2022-08-03T15:11:40;7.88;;;7.47;;
12691;SDS011;6410;57.636;18.304;2022-08-03T15:14:09;7.25;;;6.50;;
12691;SDS011;6410;57.636;18.304;2022-08-03T15:16:39;7.80;;;6.82;;
12691;SDS011;6410;57.636;18.304;2022-08-03T15:19:08;6.93;;;6.32;;
12691;SDS011;6410;57.636;18.304;2022-08-03T15:21:58;6.90;;;6.40;;
12691;SDS011;6410;57.636;18.304;2022-08-03T15:24:27;7.32;;;6.72;;
12691;SDS011;6410;57.636;18.304;2022-08-03T15:26:55;7.03;;;6.63;;
12691;SDS011;6410;57.636;18.304;2022-08-03T15:29:24;7.45;;;6.95;;
12691;SDS011;6410;57.636;18.304;2022-08-03T15:32:12;6.88;;;6.38;;
12691;SDS011;6410;57.636;18.304;2022-08-03T15:34:41;7.93;;;6.38;;